sensor_id;sensor_type;location;lat;lon;timestamp;temperature;humidity
48734;DHT22;34530;52.084;5.146;2022-12-18T00:02:04;12.10;65.40
48734;DHT22;34530;52.084;5.146;2022-12-18T00:04:30;12.20;65.40
48734;DHT22;34530;52.084;5.146;2022-12-18T00:06:55;12.10;65.40
48734;DHT22;34530;52.084;5.146;2022-12-18T00:09:21;12.10;65.50
48734;DHT22;34530;52.084;5.146;2022-12-18T00:11:47;12.10;65.60
48734;DHT22;34530;52.084;5.146;2022-12-18T00:14:13;12.10;65.60
48734;DHT22;34530;52.084;5.146;2022-12-18T00:16:39;12.10;65.70
48734;DHT22;34530;52.084;5.146;2022-12-18T00:19:06;12.10;65.70
48734;DHT22;34530;52.084;5.146;2022-12-18T00:21:33;12.00;65.70
48734;DHT22;34530;52.084;5.146;2022-12-18T00:23:59;12.00;65.80
48734;DHT22;34530;52.084;5.146;2022-12-18T00:26:28;12.00;66.00
48734;DHT22;34530;52.084;5.146;2022-12-18T00:28:55;11.90;66.00
48734;DHT22;34530;52.084;5.146;2022-12-18T00:31:24;11.90;65.90
48734;DHT22;34530;52.084;5.146;2022-12-18T00:33:50;11.90;65.90
48734;DHT22;34530;52.084;5.146;2022-12-18T00:36:18;11.90;66.00
48734;DHT22;34530;52.084;5.146;2022-12-18T00:38:44;11.90;66.10
48734;DHT22;34530;52.084;5.146;2022-12-18T00:41:11;11.90;66.20
48734;DHT22;34530;52.084;5.146;2022-12-18T00:43:38;11.90;67.00
48734;DHT22;34530;52.084;5.146;2022-12-18T00:46:04;11.80;66.20
48734;DHT22;34530;52.084;5.146;2022-12-18T00:48:29;11.80;66.30
48734;DHT22;34530;52.084;5.146;2022-12-18T00:50:55;11.80;66.30
48734;DHT22;34530;52.084;5.146;2022-12-18T00:53:21;11.80;66.30
48734;DHT22;34530;52.084;5.146;2022-12-18T00:55:46;11.80;66.40
48734;DHT22;34530;52.084;5.146;2022-12-18T00:58:14;11.70;66.40
48734;DHT22;34530;52.084;5.146;2022-12-18T01:00:40;11.80;66.50
48734;DHT22;34530;52.084;5.146;2022-12-18T01:03:06;11.70;66.50
48734;DHT22;34530;52.084;5.146;2022-12-18T01:05:32;11.70;66.50
48734;DHT22;34530;52.084;5.146;2022-12-18T01:07:58;11.70;66.50
48734;DHT22;34530;52.084;5.146;2022-12-18T01:10:24;11.70;66.50
48734;DHT22;34530;52.084;5.146;2022-12-18T01:12:50;11.70;66.50
48734;DHT22;34530;52.084;5.146;2022-12-18T01:15:16;11.70;66.60
48734;DHT22;34530;52.084;5.146;2022-12-18T01:17:42;11.60;66.50
48734;DHT22;34530;52.084;5.146;2022-12-18T01:20:09;11.70;66.60
48734;DHT22;34530;52.084;5.146;2022-12-18T01:22:35;11.60;66.50
48734;DHT22;34530;52.084;5.146;2022-12-18T01:25:01;11.60;66.50
48734;DHT22;34530;52.084;5.146;2022-12-18T01:27:27;11.60;66.60
48734;DHT22;34530;52.084;5.146;2022-12-18T01:29:53;11.60;66.60
48734;DHT22;34530;52.084;5.146;2022-12-18T01:32:19;11.60;66.60
48734;DHT22;34530;52.084;5.146;2022-12-18T01:34:44;11.60;66.70
48734;DHT22;34530;52.084;5.146;2022-12-18T01:37:10;11.60;66.70
48734;DHT22;34530;52.084;5.146;2022-12-18T01:39:36;11.60;66.70
48734;DHT22;34530;52.084;5.146;2022-12-18T01:42:12;11.50;66.70
48734;DHT22;34530;52.084;5.146;2022-12-18T01:47:47;11.50;66.70
48734;DHT22;34530;52.084;5.146;2022-12-18T01:50:25;11.50;66.70
48734;DHT22;34530;52.084;5.146;2022-12-18T01:52:55;11.50;66.70
48734;DHT22;34530;52.084;5.146;2022-12-18T01:55:24;11.50;66.70
48734;DHT22;34530;52.084;5.146;2022-12-18T01:57:52;11.50;66.80
48734;DHT22;34530;52.084;5.146;2022-12-18T02:00:20;11.40;66.70
48734;DHT22;34530;52.084;5.146;2022-12-18T02:02:47;11.40;66.80
48734;DHT22;34530;52.084;5.146;2022-12-18T02:05:16;11.40;66.80
48734;DHT22;34530;52.084;5.146;2022-12-18T02:08:19;11.40;66.80
48734;DHT22;34530;52.084;5.146;2022-12-18T02:11:10;11.40;66.80
48734;DHT22;34530;52.084;5.146;2022-12-18T02:19:45;11.40;66.90
48734;DHT22;34530;52.084;5.146;2022-12-18T02:27:34;11.30;67.00
48734;DHT22;34530;52.084;5.146;2022-12-18T02:30:03;11.30;67.00
48734;DHT22;34530;52.084;5.146;2022-12-18T02:32:34;11.30;67.10
48734;DHT22;34530;52.084;5.146;2022-12-18T02:35:03;11.30;67.10
48734;DHT22;34530;52.084;5.146;2022-12-18T02:37:30;11.30;67.10
48734;DHT22;34530;52.084;5.146;2022-12-18T02:39:58;11.30;67.10
48734;DHT22;34530;52.084;5.146;2022-12-18T02:42:24;11.30;67.10
48734;DHT22;34530;52.084;5.146;2022-12-18T02:44:51;11.30;67.10
48734;DHT22;34530;52.084;5.146;2022-12-18T02:47:22;11.40;67.20
48734;DHT22;34530;52.084;5.146;2022-12-18T02:58:30;11.40;67.10
48734;DHT22;34530;52.084;5.146;2022-12-18T03:03:55;11.40;67.20
48734;DHT22;34530;52.084;5.146;2022-12-18T03:06:46;11.40;67.20
48734;DHT22;34530;52.084;5.146;2022-12-18T03:09:19;11.40;67.20
48734;DHT22;34530;52.084;5.146;2022-12-18T03:11:49;11.40;67.20
48734;DHT22;34530;52.084;5.146;2022-12-18T03:14:38;11.40;67.20
48734;DHT22;34530;52.084;5.146;2022-12-18T03:17:07;11.40;67.20
48734;DHT22;34530;52.084;5.146;2022-12-18T03:19:34;11.40;67.20
48734;DHT22;34530;52.084;5.146;2022-12-18T03:22:03;11.40;67.20
48734;DHT22;34530;52.084;5.146;2022-12-18T03:24:31;11.40;67.20
48734;DHT22;34530;52.084;5.146;2022-12-18T03:27:01;11.40;67.10
48734;DHT22;34530;52.084;5.146;2022-12-18T03:29:48;11.40;67.20
48734;DHT22;34530;52.084;5.146;2022-12-18T03:32:26;11.40;67.10
48734;DHT22;34530;52.084;5.146;2022-12-18T03:34:55;11.40;67.10
48734;DHT22;34530;52.084;5.146;2022-12-18T03:37:23;11.40;67.10
48734;DHT22;34530;52.084;5.146;2022-12-18T03:39:48;11.40;67.10
48734;DHT22;34530;52.084;5.146;2022-12-18T03:42:30;11.50;67.20
48734;DHT22;34530;52.084;5.146;2022-12-18T03:45:09;11.50;67.10
48734;DHT22;34530;52.084;5.146;2022-12-18T03:50:16;11.50;67.10
48734;DHT22;34530;52.084;5.146;2022-12-18T03:52:52;11.50;67.10
48734;DHT22;34530;52.084;5.146;2022-12-18T03:55:21;11.50;67.00
48734;DHT22;34530;52.084;5.146;2022-12-18T03:57:48;11.50;67.00
48734;DHT22;34530;52.084;5.146;2022-12-18T04:00:16;11.50;67.00
48734;DHT22;34530;52.084;5.146;2022-12-18T04:02:51;11.60;66.90
48734;DHT22;34530;52.084;5.146;2022-12-18T04:05:19;11.60;66.90
48734;DHT22;34530;52.084;5.146;2022-12-18T04:07:47;11.60;66.80
48734;DHT22;34530;52.084;5.146;2022-12-18T04:10:14;11.60;66.70
48734;DHT22;34530;52.084;5.146;2022-12-18T04:12:40;11.70;66.80
48734;DHT22;34530;52.084;5.146;2022-12-18T04:15:06;11.70;66.80
48734;DHT22;34530;52.084;5.146;2022-12-18T04:17:32;11.70;66.70
48734;DHT22;34530;52.084;5.146;2022-12-18T04:19:58;11.70;66.60
48734;DHT22;34530;52.084;5.146;2022-12-18T04:22:23;11.70;66.70
48734;DHT22;34530;52.084;5.146;2022-12-18T04:24:49;11.70;66.60
48734;DHT22;34530;52.084;5.146;2022-12-18T04:27:14;11.70;66.60
48734;DHT22;34530;52.084;5.146;2022-12-18T04:29:40;11.70;66.50
48734;DHT22;34530;52.084;5.146;2022-12-18T04:32:06;11.70;66.40
48734;DHT22;34530;52.084;5.146;2022-12-18T04:34:32;11.70;66.40
48734;DHT22;34530;52.084;5.146;2022-12-18T04:36:57;11.80;66.50
48734;DHT22;34530;52.084;5.146;2022-12-18T04:39:23;11.80;66.40
48734;DHT22;34530;52.084;5.146;2022-12-18T04:41:48;11.80;66.30
48734;DHT22;34530;52.084;5.146;2022-12-18T04:44:14;11.80;66.30
48734;DHT22;34530;52.084;5.146;2022-12-18T04:46:40;11.80;66.30
48734;DHT22;34530;52.084;5.146;2022-12-18T04:49:05;11.80;66.30
48734;DHT22;34530;52.084;5.146;2022-12-18T04:51:31;11.80;66.30
48734;DHT22;34530;52.084;5.146;2022-12-18T04:53:56;11.80;66.30
48734;DHT22;34530;52.084;5.146;2022-12-18T04:56:22;11.80;66.20
48734;DHT22;34530;52.084;5.146;2022-12-18T04:58:48;11.80;66.20
48734;DHT22;34530;52.084;5.146;2022-12-18T05:01:15;11.90;66.30
48734;DHT22;34530;52.084;5.146;2022-12-18T05:03:41;11.90;66.30
48734;DHT22;34530;52.084;5.146;2022-12-18T05:06:06;11.90;66.30
48734;DHT22;34530;52.084;5.146;2022-12-18T05:08:33;11.90;66.30
48734;DHT22;34530;52.084;5.146;2022-12-18T05:11:09;11.90;66.20
48734;DHT22;34530;52.084;5.146;2022-12-18T05:13:35;11.90;66.20
48734;DHT22;34530;52.084;5.146;2022-12-18T05:16:01;11.90;66.10
48734;DHT22;34530;52.084;5.146;2022-12-18T05:18:28;11.90;66.10
48734;DHT22;34530;52.084;5.146;2022-12-18T05:20:54;11.90;66.00
48734;DHT22;34530;52.084;5.146;2022-12-18T05:23:20;11.90;66.00
48734;DHT22;34530;52.084;5.146;2022-12-18T05:25:54;11.90;65.90
48734;DHT22;34530;52.084;5.146;2022-12-18T05:28:22;11.90;65.90
48734;DHT22;34530;52.084;5.146;2022-12-18T05:30:53;12.00;66.00
48734;DHT22;34530;52.084;5.146;2022-12-18T05:33:20;11.90;65.90
48734;DHT22;34530;52.084;5.146;2022-12-18T05:35:58;11.90;65.90
48734;DHT22;34530;52.084;5.146;2022-12-18T05:38:24;11.90;65.90
48734;DHT22;34530;52.084;5.146;2022-12-18T05:40:51;11.90;65.90
48734;DHT22;34530;52.084;5.146;2022-12-18T05:43:18;11.90;66.00
48734;DHT22;34530;52.084;5.146;2022-12-18T05:45:44;11.90;65.90
48734;DHT22;34530;52.084;5.146;2022-12-18T05:48:11;11.90;65.90
48734;DHT22;34530;52.084;5.146;2022-12-18T05:50:37;12.00;65.90
48734;DHT22;34530;52.084;5.146;2022-12-18T05:53:04;11.90;65.80
48734;DHT22;34530;52.084;5.146;2022-12-18T05:55:34;12.00;65.80
48734;DHT22;34530;52.084;5.146;2022-12-18T05:58:00;11.90;65.70
48734;DHT22;34530;52.084;5.146;2022-12-18T06:00:26;12.00;65.80
48734;DHT22;34530;52.084;5.146;2022-12-18T06:02:52;11.90;65.70
48734;DHT22;34530;52.084;5.146;2022-12-18T06:05:17;11.90;65.70
48734;DHT22;34530;52.084;5.146;2022-12-18T06:07:43;11.90;65.70
48734;DHT22;34530;52.084;5.146;2022-12-18T06:10:09;11.90;65.60
48734;DHT22;34530;52.084;5.146;2022-12-18T06:12:34;11.90;65.60
48734;DHT22;34530;52.084;5.146;2022-12-18T06:15:00;11.90;65.50
48734;DHT22;34530;52.084;5.146;2022-12-18T06:17:33;11.90;65.50
48734;DHT22;34530;52.084;5.146;2022-12-18T06:19:59;11.90;65.50
48734;DHT22;34530;52.084;5.146;2022-12-18T06:22:25;11.90;65.50
48734;DHT22;34530;52.084;5.146;2022-12-18T06:24:51;11.90;65.40
48734;DHT22;34530;52.084;5.146;2022-12-18T06:27:17;11.90;65.40
48734;DHT22;34530;52.084;5.146;2022-12-18T06:29:42;11.90;65.40
48734;DHT22;34530;52.084;5.146;2022-12-18T06:32:08;11.90;65.80
48734;DHT22;34530;52.084;5.146;2022-12-18T06:34:34;11.90;65.30
48734;DHT22;34530;52.084;5.146;2022-12-18T06:36:59;11.90;65.30
48734;DHT22;34530;52.084;5.146;2022-12-18T06:39:29;11.90;65.30
48734;DHT22;34530;52.084;5.146;2022-12-18T06:41:54;11.90;65.20
48734;DHT22;34530;52.084;5.146;2022-12-18T06:44:20;11.90;65.20
48734;DHT22;34530;52.084;5.146;2022-12-18T06:46:45;11.90;65.20
48734;DHT22;34530;52.084;5.146;2022-12-18T06:49:11;11.90;65.20
48734;DHT22;34530;52.084;5.146;2022-12-18T06:51:37;11.90;65.20
48734;DHT22;34530;52.084;5.146;2022-12-18T06:54:03;11.90;65.10
48734;DHT22;34530;52.084;5.146;2022-12-18T06:56:29;11.90;65.10
48734;DHT22;34530;52.084;5.146;2022-12-18T06:58:54;11.80;65.00
48734;DHT22;34530;52.084;5.146;2022-12-18T07:01:21;11.80;65.00
48734;DHT22;34530;52.084;5.146;2022-12-18T07:03:47;11.80;65.00
48734;DHT22;34530;52.084;5.146;2022-12-18T07:06:18;11.80;65.00
48734;DHT22;34530;52.084;5.146;2022-12-18T07:08:45;11.80;64.90
48734;DHT22;34530;52.084;5.146;2022-12-18T07:11:12;11.80;64.90
48734;DHT22;34530;52.084;5.146;2022-12-18T07:13:38;11.80;64.90
48734;DHT22;34530;52.084;5.146;2022-12-18T07:16:08;11.80;64.80
48734;DHT22;34530;52.084;5.146;2022-12-18T07:18:34;11.80;64.80
48734;DHT22;34530;52.084;5.146;2022-12-18T07:21:04;11.80;64.80
48734;DHT22;34530;52.084;5.146;2022-12-18T07:23:32;11.80;64.70
48734;DHT22;34530;52.084;5.146;2022-12-18T07:26:01;11.80;64.80
48734;DHT22;34530;52.084;5.146;2022-12-18T07:28:27;11.80;64.70
48734;DHT22;34530;52.084;5.146;2022-12-18T07:30:53;11.80;64.70
48734;DHT22;34530;52.084;5.146;2022-12-18T07:33:19;11.80;64.70
48734;DHT22;34530;52.084;5.146;2022-12-18T07:35:44;11.80;64.60
48734;DHT22;34530;52.084;5.146;2022-12-18T07:38:10;11.80;64.60
48734;DHT22;34530;52.084;5.146;2022-12-18T07:40:35;11.80;64.60
48734;DHT22;34530;52.084;5.146;2022-12-18T07:43:01;11.80;64.60
48734;DHT22;34530;52.084;5.146;2022-12-18T07:45:27;11.80;64.60
48734;DHT22;34530;52.084;5.146;2022-12-18T07:47:52;11.80;64.60
48734;DHT22;34530;52.084;5.146;2022-12-18T07:50:18;11.80;64.60
48734;DHT22;34530;52.084;5.146;2022-12-18T07:52:43;11.80;64.50
48734;DHT22;34530;52.084;5.146;2022-12-18T07:55:09;11.80;64.50
48734;DHT22;34530;52.084;5.146;2022-12-18T07:57:34;11.80;64.50
48734;DHT22;34530;52.084;5.146;2022-12-18T08:00:00;11.80;64.50
48734;DHT22;34530;52.084;5.146;2022-12-18T08:02:26;11.80;64.50
48734;DHT22;34530;52.084;5.146;2022-12-18T08:04:51;11.80;64.50
48734;DHT22;34530;52.084;5.146;2022-12-18T08:07:17;11.80;65.00
48734;DHT22;34530;52.084;5.146;2022-12-18T08:09:42;11.80;64.50
48734;DHT22;34530;52.084;5.146;2022-12-18T08:12:08;11.80;64.50
48734;DHT22;34530;52.084;5.146;2022-12-18T08:14:33;11.80;64.40
48734;DHT22;34530;52.084;5.146;2022-12-18T08:16:59;11.80;64.50
48734;DHT22;34530;52.084;5.146;2022-12-18T08:19:25;11.80;64.40
48734;DHT22;34530;52.084;5.146;2022-12-18T08:21:50;11.80;64.40
48734;DHT22;34530;52.084;5.146;2022-12-18T08:24:16;11.80;64.30
48734;DHT22;34530;52.084;5.146;2022-12-18T08:26:41;11.80;64.30
48734;DHT22;34530;52.084;5.146;2022-12-18T08:29:08;11.80;64.30
48734;DHT22;34530;52.084;5.146;2022-12-18T08:31:34;11.80;64.20
48734;DHT22;34530;52.084;5.146;2022-12-18T08:33:59;11.80;64.20
48734;DHT22;34530;52.084;5.146;2022-12-18T08:36:25;11.80;64.20
48734;DHT22;34530;52.084;5.146;2022-12-18T08:38:51;11.80;64.20
48734;DHT22;34530;52.084;5.146;2022-12-18T08:41:17;11.80;64.20
48734;DHT22;34530;52.084;5.146;2022-12-18T08:43:43;11.80;64.10
48734;DHT22;34530;52.084;5.146;2022-12-18T08:46:37;11.80;64.10
48734;DHT22;34530;52.084;5.146;2022-12-18T08:49:04;11.80;64.20
48734;DHT22;34530;52.084;5.146;2022-12-18T08:51:30;11.80;64.20
48734;DHT22;34530;52.084;5.146;2022-12-18T08:53:55;11.80;64.20
48734;DHT22;34530;52.084;5.146;2022-12-18T08:56:21;11.90;64.40
48734;DHT22;34530;52.084;5.146;2022-12-18T08:58:47;11.90;64.40
48734;DHT22;34530;52.084;5.146;2022-12-18T09:01:13;12.00;64.40
48734;DHT22;34530;52.084;5.146;2022-12-18T09:03:39;12.10;64.30
48734;DHT22;34530;52.084;5.146;2022-12-18T09:06:05;12.30;64.30
48734;DHT22;34530;52.084;5.146;2022-12-18T09:08:31;12.30;64.10
48734;DHT22;34530;52.084;5.146;2022-12-18T09:10:57;12.40;64.00
48734;DHT22;34530;52.084;5.146;2022-12-18T09:13:22;12.50;63.80
48734;DHT22;34530;52.084;5.146;2022-12-18T09:15:53;12.50;63.70
48734;DHT22;34530;52.084;5.146;2022-12-18T09:18:20;12.60;63.60
48734;DHT22;34530;52.084;5.146;2022-12-18T09:20:46;12.60;63.50
48734;DHT22;34530;52.084;5.146;2022-12-18T09:23:12;12.60;63.50
48734;DHT22;34530;52.084;5.146;2022-12-18T09:25:38;12.60;63.50
48734;DHT22;34530;52.084;5.146;2022-12-18T09:28:18;12.60;63.50
48734;DHT22;34530;52.084;5.146;2022-12-18T09:30:47;12.60;63.40
48734;DHT22;34530;52.084;5.146;2022-12-18T09:33:13;12.50;63.30
48734;DHT22;34530;52.084;5.146;2022-12-18T09:35:39;12.50;63.40
48734;DHT22;34530;52.084;5.146;2022-12-18T09:38:06;12.50;63.50
48734;DHT22;34530;52.084;5.146;2022-12-18T09:40:45;12.40;63.40
48734;DHT22;34530;52.084;5.146;2022-12-18T09:46:07;12.30;63.50
48734;DHT22;34530;52.084;5.146;2022-12-18T09:48:54;12.30;63.50
48734;DHT22;34530;52.084;5.146;2022-12-18T09:51:36;12.30;63.50
48734;DHT22;34530;52.084;5.146;2022-12-18T09:54:05;12.20;63.50
48734;DHT22;34530;52.084;5.146;2022-12-18T09:56:36;12.20;63.50
48734;DHT22;34530;52.084;5.146;2022-12-18T09:59:04;12.10;63.50
48734;DHT22;34530;52.084;5.146;2022-12-18T10:01:32;12.10;63.50
48734;DHT22;34530;52.084;5.146;2022-12-18T10:03:58;12.00;63.50
48734;DHT22;34530;52.084;5.146;2022-12-18T10:06:29;12.00;63.60
48734;DHT22;34530;52.084;5.146;2022-12-18T10:09:09;11.90;63.90
48734;DHT22;34530;52.084;5.146;2022-12-18T10:22:58;12.10;66.50
48734;DHT22;34530;52.084;5.146;2022-12-18T10:28:18;12.20;66.40
48734;DHT22;34530;52.084;5.146;2022-12-18T10:30:44;12.20;66.40
48734;DHT22;34530;52.084;5.146;2022-12-18T10:33:22;12.20;66.40
48734;DHT22;34530;52.084;5.146;2022-12-18T10:35:50;12.20;66.50
48734;DHT22;34530;52.084;5.146;2022-12-18T10:43:47;12.20;66.30
48734;DHT22;34530;52.084;5.146;2022-12-18T10:46:19;12.20;66.30
48734;DHT22;34530;52.084;5.146;2022-12-18T10:48:52;12.20;66.40
48734;DHT22;34530;52.084;5.146;2022-12-18T10:51:33;12.10;66.30
48734;DHT22;34530;52.084;5.146;2022-12-18T10:54:05;12.10;66.20
48734;DHT22;34530;52.084;5.146;2022-12-18T10:56:34;12.10;66.20
48734;DHT22;34530;52.084;5.146;2022-12-18T10:59:05;12.00;66.20
48734;DHT22;34530;52.084;5.146;2022-12-18T11:01:56;12.00;66.20
48734;DHT22;34530;52.084;5.146;2022-12-18T11:04:32;12.00;66.90
48734;DHT22;34530;52.084;5.146;2022-12-18T11:09:32;12.00;66.00
48734;DHT22;34530;52.084;5.146;2022-12-18T11:12:00;12.00;66.00
48734;DHT22;34530;52.084;5.146;2022-12-18T11:14:33;12.00;65.80
48734;DHT22;34530;52.084;5.146;2022-12-18T11:17:00;12.00;65.70
48734;DHT22;34530;52.084;5.146;2022-12-18T11:19:28;12.00;65.60
48734;DHT22;34530;52.084;5.146;2022-12-18T11:21:55;12.00;65.50
48734;DHT22;34530;52.084;5.146;2022-12-18T11:24:30;12.10;65.50
48734;DHT22;34530;52.084;5.146;2022-12-18T11:27:16;12.10;65.40
48734;DHT22;34530;52.084;5.146;2022-12-18T11:29:42;12.10;65.30
48734;DHT22;34530;52.084;5.146;2022-12-18T11:34:45;12.10;65.10
48734;DHT22;34530;52.084;5.146;2022-12-18T11:37:13;12.20;65.10
48734;DHT22;34530;52.084;5.146;2022-12-18T11:39:59;12.20;65.00
48734;DHT22;34530;52.084;5.146;2022-12-18T11:42:48;12.20;64.90
48734;DHT22;34530;52.084;5.146;2022-12-18T11:48:21;12.20;64.60
48734;DHT22;34530;52.084;5.146;2022-12-18T11:50:58;12.20;64.60
48734;DHT22;34530;52.084;5.146;2022-12-18T11:53:26;12.20;64.60
48734;DHT22;34530;52.084;5.146;2022-12-18T12:04:08;12.30;64.40
48734;DHT22;34530;52.084;5.146;2022-12-18T12:09:12;12.30;64.20
48734;DHT22;34530;52.084;5.146;2022-12-18T12:14:49;12.30;64.10
48734;DHT22;34530;52.084;5.146;2022-12-18T12:17:34;12.30;64.10
48734;DHT22;34530;52.084;5.146;2022-12-18T12:20:24;12.30;64.00
48734;DHT22;34530;52.084;5.146;2022-12-18T12:25:55;12.30;63.80
48734;DHT22;34530;52.084;5.146;2022-12-18T12:34:05;12.30;63.70
48734;DHT22;34530;52.084;5.146;2022-12-18T12:39:11;12.40;63.70
48734;DHT22;34530;52.084;5.146;2022-12-18T12:41:40;12.40;63.60
48734;DHT22;34530;52.084;5.146;2022-12-18T12:44:34;12.40;63.50
48734;DHT22;34530;52.084;5.146;2022-12-18T12:47:11;12.40;63.40
48734;DHT22;34530;52.084;5.146;2022-12-18T12:49:40;12.40;63.40
48734;DHT22;34530;52.084;5.146;2022-12-18T12:52:17;12.40;63.30
48734;DHT22;34530;52.084;5.146;2022-12-18T12:54:46;12.40;63.30
48734;DHT22;34530;52.084;5.146;2022-12-18T12:57:34;12.40;63.40
48734;DHT22;34530;52.084;5.146;2022-12-18T13:00:13;12.40;63.30
48734;DHT22;34530;52.084;5.146;2022-12-18T13:08:30;12.30;63.20
48734;DHT22;34530;52.084;5.146;2022-12-18T13:10:58;12.30;63.20
48734;DHT22;34530;52.084;5.146;2022-12-18T13:13:51;12.30;63.30
48734;DHT22;34530;52.084;5.146;2022-12-18T13:16:22;12.30;63.30
48734;DHT22;34530;52.084;5.146;2022-12-18T13:18:55;12.30;63.30
48734;DHT22;34530;52.084;5.146;2022-12-18T13:21:28;12.30;63.30
48734;DHT22;34530;52.084;5.146;2022-12-18T13:23:55;12.30;63.30
48734;DHT22;34530;52.084;5.146;2022-12-18T13:28:56;12.30;63.30
48734;DHT22;34530;52.084;5.146;2022-12-18T13:36:40;12.30;63.30
48734;DHT22;34530;52.084;5.146;2022-12-18T13:41:40;12.30;63.30
48734;DHT22;34530;52.084;5.146;2022-12-18T13:44:25;12.30;63.40
48734;DHT22;34530;52.084;5.146;2022-12-18T13:46:52;12.30;63.40
48734;DHT22;34530;52.084;5.146;2022-12-18T13:49:30;12.30;63.50
48734;DHT22;34530;52.084;5.146;2022-12-18T13:52:01;12.30;63.50
48734;DHT22;34530;52.084;5.146;2022-12-18T13:54:37;12.30;63.80
48734;DHT22;34530;52.084;5.146;2022-12-18T13:57:05;12.30;64.00
48734;DHT22;34530;52.084;5.146;2022-12-18T13:59:40;12.30;64.00
48734;DHT22;34530;52.084;5.146;2022-12-18T14:02:13;12.30;64.10
48734;DHT22;34530;52.084;5.146;2022-12-18T14:04:39;12.30;64.00
48734;DHT22;34530;52.084;5.146;2022-12-18T14:07:13;12.30;64.00
48734;DHT22;34530;52.084;5.146;2022-12-18T14:09:43;12.30;63.90
48734;DHT22;34530;52.084;5.146;2022-12-18T14:12:17;12.30;63.80
48734;DHT22;34530;52.084;5.146;2022-12-18T14:15:01;12.30;63.80
48734;DHT22;34530;52.084;5.146;2022-12-18T14:17:27;12.30;63.80
48734;DHT22;34530;52.084;5.146;2022-12-18T14:19:53;12.40;63.80
48734;DHT22;34530;52.084;5.146;2022-12-18T14:22:21;12.40;63.60
48734;DHT22;34530;52.084;5.146;2022-12-18T14:27:43;12.40;63.80
48734;DHT22;34530;52.084;5.146;2022-12-18T14:33:05;12.50;63.70
48734;DHT22;34530;52.084;5.146;2022-12-18T14:35:40;12.50;63.70
48734;DHT22;34530;52.084;5.146;2022-12-18T14:41:00;12.50;63.50
48734;DHT22;34530;52.084;5.146;2022-12-18T14:43:28;12.50;64.10
48734;DHT22;34530;52.084;5.146;2022-12-18T14:45:54;12.40;63.20
48734;DHT22;34530;52.084;5.146;2022-12-18T14:48:33;12.40;63.00
48734;DHT22;34530;52.084;5.146;2022-12-18T14:53:42;12.40;62.80
48734;DHT22;34530;52.084;5.146;2022-12-18T14:56:42;12.30;62.60
48734;DHT22;34530;52.084;5.146;2022-12-18T14:59:24;12.30;62.60
48734;DHT22;34530;52.084;5.146;2022-12-18T15:02:22;12.30;62.50
48734;DHT22;34530;52.084;5.146;2022-12-18T15:05:14;12.30;62.60
48734;DHT22;34530;52.084;5.146;2022-12-18T15:07:44;12.30;64.30
48734;DHT22;34530;52.084;5.146;2022-12-18T15:10:17;12.30;66.30
48734;DHT22;34530;52.084;5.146;2022-12-18T15:12:45;12.30;67.80
48734;DHT22;34530;52.084;5.146;2022-12-18T15:18:11;12.30;68.30
48734;DHT22;34530;52.084;5.146;2022-12-18T15:20:53;12.30;68.00
48734;DHT22;34530;52.084;5.146;2022-12-18T15:23:28;12.30;67.70
48734;DHT22;34530;52.084;5.146;2022-12-18T15:26:16;12.30;67.30
48734;DHT22;34530;52.084;5.146;2022-12-18T15:28:50;12.30;66.80
48734;DHT22;34530;52.084;5.146;2022-12-18T15:34:21;12.30;66.20
48734;DHT22;34530;52.084;5.146;2022-12-18T15:36:46;12.30;66.00
48734;DHT22;34530;52.084;5.146;2022-12-18T15:39:12;12.30;65.60
48734;DHT22;34530;52.084;5.146;2022-12-18T15:41:38;12.30;65.40
48734;DHT22;34530;52.084;5.146;2022-12-18T15:44:22;12.20;65.10
48734;DHT22;34530;52.084;5.146;2022-12-18T15:46:48;12.30;64.90
48734;DHT22;34530;52.084;5.146;2022-12-18T15:49:14;12.20;64.60
48734;DHT22;34530;52.084;5.146;2022-12-18T15:51:39;12.20;64.30
48734;DHT22;34530;52.084;5.146;2022-12-18T15:54:06;12.20;64.10
48734;DHT22;34530;52.084;5.146;2022-12-18T15:56:34;12.20;63.90
48734;DHT22;34530;52.084;5.146;2022-12-18T15:59:20;12.20;63.60
48734;DHT22;34530;52.084;5.146;2022-12-18T16:01:50;12.20;63.40
48734;DHT22;34530;52.084;5.146;2022-12-18T16:04:18;12.20;63.20
48734;DHT22;34530;52.084;5.146;2022-12-18T16:06:46;12.20;63.90
48734;DHT22;34530;52.084;5.146;2022-12-18T16:09:11;12.20;62.90
48734;DHT22;34530;52.084;5.146;2022-12-18T16:11:39;12.20;62.70
48734;DHT22;34530;52.084;5.146;2022-12-18T16:16:47;12.20;62.30
48734;DHT22;34530;52.084;5.146;2022-12-18T16:19:13;12.30;62.20
48734;DHT22;34530;52.084;5.146;2022-12-18T16:21:39;12.30;62.10
48734;DHT22;34530;52.084;5.146;2022-12-18T16:24:05;12.30;61.90
48734;DHT22;34530;52.084;5.146;2022-12-18T16:26:31;12.30;61.70
48734;DHT22;34530;52.084;5.146;2022-12-18T16:28:56;12.30;61.50
48734;DHT22;34530;52.084;5.146;2022-12-18T16:31:22;12.30;61.40
48734;DHT22;34530;52.084;5.146;2022-12-18T16:33:47;12.30;62.00
48734;DHT22;34530;52.084;5.146;2022-12-18T16:36:13;12.30;61.10
48734;DHT22;34530;52.084;5.146;2022-12-18T16:38:39;12.30;60.90
48734;DHT22;34530;52.084;5.146;2022-12-18T16:41:18;12.40;60.80
48734;DHT22;34530;52.084;5.146;2022-12-18T16:43:56;12.40;60.70
48734;DHT22;34530;52.084;5.146;2022-12-18T16:46:22;12.40;60.60
48734;DHT22;34530;52.084;5.146;2022-12-18T16:48:48;12.40;60.50
48734;DHT22;34530;52.084;5.146;2022-12-18T16:51:13;12.40;60.40
48734;DHT22;34530;52.084;5.146;2022-12-18T16:53:39;12.40;60.30
48734;DHT22;34530;52.084;5.146;2022-12-18T16:56:05;12.40;60.20
48734;DHT22;34530;52.084;5.146;2022-12-18T16:58:31;12.50;60.10
48734;DHT22;34530;52.084;5.146;2022-12-18T17:00:57;12.50;60.00
48734;DHT22;34530;52.084;5.146;2022-12-18T17:03:22;12.50;60.00
48734;DHT22;34530;52.084;5.146;2022-12-18T17:05:48;12.50;59.90
48734;DHT22;34530;52.084;5.146;2022-12-18T17:08:13;12.50;59.80
48734;DHT22;34530;52.084;5.146;2022-12-18T17:10:39;12.50;59.70
48734;DHT22;34530;52.084;5.146;2022-12-18T17:13:05;12.50;59.70
48734;DHT22;34530;52.084;5.146;2022-12-18T17:15:34;12.50;59.60
48734;DHT22;34530;52.084;5.146;2022-12-18T17:18:00;12.50;59.50
48734;DHT22;34530;52.084;5.146;2022-12-18T17:20:26;12.60;59.50
48734;DHT22;34530;52.084;5.146;2022-12-18T17:22:51;12.60;59.50
48734;DHT22;34530;52.084;5.146;2022-12-18T17:25:17;12.60;59.40
48734;DHT22;34530;52.084;5.146;2022-12-18T17:27:43;12.60;59.40
48734;DHT22;34530;52.084;5.146;2022-12-18T17:30:09;12.60;59.30
48734;DHT22;34530;52.084;5.146;2022-12-18T17:32:35;12.60;59.20
48734;DHT22;34530;52.084;5.146;2022-12-18T17:35:00;12.60;59.80
48734;DHT22;34530;52.084;5.146;2022-12-18T17:37:26;12.60;59.10
48734;DHT22;34530;52.084;5.146;2022-12-18T17:39:52;12.60;59.10
48734;DHT22;34530;52.084;5.146;2022-12-18T17:42:18;12.60;59.00
48734;DHT22;34530;52.084;5.146;2022-12-18T17:44:44;12.60;59.00